sensor_id;sensor_type;location;lat;lon;timestamp;pressure;altitude;pressure_sealevel;temperature;humidity
29371;BME280;16357;52.188;7.838;2023-01-31T00:01:10;101501.06;;;6.99;63.17
29371;BME280;16357;52.188;7.838;2023-01-31T00:03:38;101498.38;;;6.99;63.27
29371;BME280;16357;52.188;7.838;2023-01-31T00:08:40;101488.69;;;6.98;62.91
29371;BME280;16357;52.188;7.838;2023-01-31T00:11:06;101486.13;;;6.97;63.47
29371;BME280;16357;52.188;7.838;2023-01-31T00:13:33;101487.97;;;6.96;63.61
29371;BME280;16357;52.188;7.838;2023-01-31T00:16:00;101488.94;;;6.95;63.26
29371;BME280;16357;52.188;7.838;2023-01-31T00:18:27;101486.25;;;6.95;63.26
29371;BME280;16357;52.188;7.838;2023-01-31T00:20:53;101496.94;;;6.95;63.47
29371;BME280;16357;52.188;7.838;2023-01-31T00:23:20;101504.81;;;6.97;63.47
29371;BME280;16357;52.188;7.838;2023-01-31T00:25:46;101502.97;;;6.97;63.50
29371;BME280;16357;52.188;7.838;2023-01-31T00:28:12;101500.31;;;6.97;63.32
29371;BME280;16357;52.188;7.838;2023-01-31T00:30:39;101497.53;;;6.99;63.46
29371;BME280;16357;52.188;7.838;2023-01-31T00:33:05;101496.56;;;7.00;63.51
29371;BME280;16357;52.188;7.838;2023-01-31T00:35:32;101499.25;;;7.00;63.37
29371;BME280;16357;52.188;7.838;2023-01-31T00:37:58;101503.72;;;6.99;63.21
29371;BME280;16357;52.188;7.838;2023-01-31T00:40:26;101494.03;;;6.98;62.85
29371;BME280;16357;52.188;7.838;2023-01-31T00:42:52;101481.78;;;6.96;62.89
29371;BME280;16357;52.188;7.838;2023-01-31T00:45:18;101485.53;;;6.93;62.96
29371;BME280;16357;52.188;7.838;2023-01-31T00:47:45;101489.38;;;6.89;62.81
29371;BME280;16357;52.188;7.838;2023-01-31T00:50:13;101488.84;;;6.84;63.06
29371;BME280;16357;52.188;7.838;2023-01-31T00:52:40;101499.88;;;6.79;62.90
29371;BME280;16357;52.188;7.838;2023-01-31T00:55:07;101493.91;;;6.76;62.78
29371;BME280;16357;52.188;7.838;2023-01-31T00:57:34;101488.91;;;6.71;63.03
29371;BME280;16357;52.188;7.838;2023-01-31T01:00:01;101490.13;;;6.67;62.85
29371;BME280;16357;52.188;7.838;2023-01-31T01:02:28;101487.78;;;6.63;63.08
29371;BME280;16357;52.188;7.838;2023-01-31T01:04:54;101499.53;;;6.60;62.86
29371;BME280;16357;52.188;7.838;2023-01-31T01:07:21;101494.50;;;6.55;62.94
29371;BME280;16357;52.188;7.838;2023-01-31T01:09:47;101500.06;;;6.52;63.08
29371;BME280;16357;52.188;7.838;2023-01-31T01:12:14;101502.22;;;6.47;62.84
29371;BME280;16357;52.188;7.838;2023-01-31T01:14:40;101503.53;;;6.42;62.76
29371;BME280;16357;52.188;7.838;2023-01-31T01:17:06;101499.50;;;6.36;62.57
29371;BME280;16357;52.188;7.838;2023-01-31T01:19:33;101506.97;;;6.31;62.46
29371;BME280;16357;52.188;7.838;2023-01-31T01:22:00;101512.72;;;6.25;62.72
29371;BME280;16357;52.188;7.838;2023-01-31T01:24:26;101507.94;;;6.17;62.63
29371;BME280;16357;52.188;7.838;2023-01-31T01:26:54;101505.72;;;6.11;62.86
29371;BME280;16357;52.188;7.838;2023-01-31T01:29:21;101516.78;;;6.05;62.86
29371;BME280;16357;52.188;7.838;2023-01-31T01:31:47;101515.31;;;6.01;63.30
29371;BME280;16357;52.188;7.838;2023-01-31T01:34:15;101520.00;;;5.97;63.33
29371;BME280;16357;52.188;7.838;2023-01-31T01:36:42;101521.94;;;5.95;64.02
29371;BME280;16357;52.188;7.838;2023-01-31T01:39:11;101529.06;;;5.94;64.28
29371;BME280;16357;52.188;7.838;2023-01-31T01:41:38;101527.25;;;5.95;64.35
29371;BME280;16357;52.188;7.838;2023-01-31T01:52:33;101508.41;;;5.98;63.40
29371;BME280;16357;52.188;7.838;2023-01-31T01:55:22;101522.66;;;5.97;63.18
29371;BME280;16357;52.188;7.838;2023-01-31T01:57:53;101524.75;;;5.92;62.92
29371;BME280;16357;52.188;7.838;2023-01-31T02:00:24;101526.88;;;5.87;62.99
29371;BME280;16357;52.188;7.838;2023-01-31T02:02:56;101514.00;;;5.81;63.20
29371;BME280;16357;52.188;7.838;2023-01-31T02:05:27;101515.38;;;5.73;63.11
29371;BME280;16357;52.188;7.838;2023-01-31T02:07:56;101530.09;;;5.66;63.20
29371;BME280;16357;52.188;7.838;2023-01-31T02:10:30;101533.06;;;5.62;63.08
29371;BME280;16357;52.188;7.838;2023-01-31T02:12:57;101522.09;;;5.54;63.18
29371;BME280;16357;52.188;7.838;2023-01-31T02:15:23;101542.09;;;5.46;63.57
29371;BME280;16357;52.188;7.838;2023-01-31T02:17:52;101547.84;;;5.40;63.37
29371;BME280;16357;52.188;7.838;2023-01-31T02:23:04;101563.47;;;5.32;63.74
29371;BME280;16357;52.188;7.838;2023-01-31T02:28:38;101558.72;;;5.23;64.12
29371;BME280;16357;52.188;7.838;2023-01-31T02:47:25;101549.22;;;5.06;64.49
29371;BME280;16357;52.188;7.838;2023-01-31T02:50:11;101548.47;;;5.04;64.83
29371;BME280;16357;52.188;7.838;2023-01-31T02:52:42;101552.81;;;5.05;64.70
29371;BME280;16357;52.188;7.838;2023-01-31T02:55:19;101556.44;;;5.04;64.42
29371;BME280;16357;52.188;7.838;2023-01-31T02:58:08;101553.88;;;5.02;64.47
29371;BME280;16357;52.188;7.838;2023-01-31T03:00:38;101547.69;;;5.02;64.60
29371;BME280;16357;52.188;7.838;2023-01-31T03:03:11;101540.69;;;5.01;64.58
29371;BME280;16357;52.188;7.838;2023-01-31T03:05:38;101536.22;;;5.01;64.89
29371;BME280;16357;52.188;7.838;2023-01-31T03:08:10;101531.75;;;5.02;64.89
29371;BME280;16357;52.188;7.838;2023-01-31T03:13:43;101514.75;;;5.04;65.12
29371;BME280;16357;52.188;7.838;2023-01-31T03:16:23;101504.94;;;5.05;64.44
29371;BME280;16357;52.188;7.838;2023-01-31T03:19:18;101504.94;;;5.05;64.93
29371;BME280;16357;52.188;7.838;2023-01-31T03:24:23;101499.84;;;5.02;65.11
29371;BME280;16357;52.188;7.838;2023-01-31T03:26:56;101503.34;;;5.02;64.49
29371;BME280;16357;52.188;7.838;2023-01-31T03:29:25;101494.53;;;5.02;65.36
29371;BME280;16357;52.188;7.838;2023-01-31T03:31:57;101497.19;;;5.02;65.36
29371;BME280;16357;52.188;7.838;2023-01-31T03:34:26;101488.28;;;5.03;65.55
29371;BME280;16357;52.188;7.838;2023-01-31T03:36:55;101493.38;;;5.06;65.55
29371;BME280;16357;52.188;7.838;2023-01-31T03:39:42;101479.88;;;5.09;65.38
29371;BME280;16357;52.188;7.838;2023-01-31T03:42:15;101484.00;;;5.13;65.40
29371;BME280;16357;52.188;7.838;2023-01-31T03:44:50;101473.19;;;5.16;65.53
29371;BME280;16357;52.188;7.838;2023-01-31T03:47:38;101480.75;;;5.22;65.54
29371;BME280;16357;52.188;7.838;2023-01-31T03:52:50;101466.09;;;5.30;65.01
29371;BME280;16357;52.188;7.838;2023-01-31T03:55:23;101467.56;;;5.34;65.51
29371;BME280;16357;52.188;7.838;2023-01-31T03:57:54;101462.91;;;5.37;65.66
29371;BME280;16357;52.188;7.838;2023-01-31T04:00:23;101450.22;;;5.41;65.59
29371;BME280;16357;52.188;7.838;2023-01-31T04:03:04;101464.16;;;5.44;65.52
29371;BME280;16357;52.188;7.838;2023-01-31T04:05:32;101459.50;;;5.48;65.08
29371;BME280;16357;52.188;7.838;2023-01-31T04:07:59;101460.22;;;5.50;65.38
29371;BME280;16357;52.188;7.838;2023-01-31T04:10:25;101453.84;;;5.53;65.22
29371;BME280;16357;52.188;7.838;2023-01-31T04:12:52;101451.84;;;5.56;65.38
29371;BME280;16357;52.188;7.838;2023-01-31T04:15:19;101456.94;;;5.59;65.10
29371;BME280;16357;52.188;7.838;2023-01-31T04:17:46;101454.06;;;5.62;65.17
29371;BME280;16357;52.188;7.838;2023-01-31T04:20:12;101457.34;;;5.66;65.46
29371;BME280;16357;52.188;7.838;2023-01-31T04:22:39;101458.09;;;5.68;65.13
29371;BME280;16357;52.188;7.838;2023-01-31T04:25:06;101455.22;;;5.71;65.13
29371;BME280;16357;52.188;7.838;2023-01-31T04:27:33;101445.22;;;5.75;65.04
29371;BME280;16357;52.188;7.838;2023-01-31T04:29:59;101445.00;;;5.78;65.24
29371;BME280;16357;52.188;7.838;2023-01-31T04:32:26;101442.97;;;5.81;65.14
29371;BME280;16357;52.188;7.838;2023-01-31T04:34:52;101437.56;;;5.83;65.03
29371;BME280;16357;52.188;7.838;2023-01-31T04:37:18;101433.81;;;5.85;64.90
29371;BME280;16357;52.188;7.838;2023-01-31T04:39:45;101432.63;;;5.89;64.95
29371;BME280;16357;52.188;7.838;2023-01-31T04:42:11;101421.03;;;5.90;65.13
29371;BME280;16357;52.188;7.838;2023-01-31T04:44:38;101427.00;;;5.94;64.54
29371;BME280;16357;52.188;7.838;2023-01-31T04:47:04;101419.78;;;5.96;65.00
29371;BME280;16357;52.188;7.838;2023-01-31T04:49:30;101419.63;;;5.98;64.55
29371;BME280;16357;52.188;7.838;2023-01-31T04:51:57;101416.88;;;5.99;64.48
29371;BME280;16357;52.188;7.838;2023-01-31T04:54:23;101413.25;;;6.00;64.69
29371;BME280;16357;52.188;7.838;2023-01-31T04:56:49;101411.31;;;6.02;64.80
29371;BME280;16357;52.188;7.838;2023-01-31T04:59:16;101414.00;;;6.02;64.65
29371;BME280;16357;52.188;7.838;2023-01-31T05:01:42;101402.41;;;6.03;64.47
29371;BME280;16357;52.188;7.838;2023-01-31T05:04:08;101393.34;;;6.06;64.64
29371;BME280;16357;52.188;7.838;2023-01-31T05:06:36;101393.19;;;6.07;64.73
29371;BME280;16357;52.188;7.838;2023-01-31T05:09:02;101381.59;;;6.08;64.43
29371;BME280;16357;52.188;7.838;2023-01-31T05:11:28;101384.13;;;6.10;64.52
29371;BME280;16357;52.188;7.838;2023-01-31T05:13:55;101377.75;;;6.12;64.38
29371;BME280;16357;52.188;7.838;2023-01-31T05:16:21;101377.50;;;6.15;64.56
29371;BME280;16357;52.188;7.838;2023-01-31T05:18:47;101369.41;;;6.17;64.79
29371;BME280;16357;52.188;7.838;2023-01-31T05:21:16;101362.16;;;6.19;64.50
29371;BME280;16357;52.188;7.838;2023-01-31T05:23:42;101359.28;;;6.22;64.70
29371;BME280;16357;52.188;7.838;2023-01-31T05:26:11;101358.19;;;6.25;64.50
29371;BME280;16357;52.188;7.838;2023-01-31T05:28:41;101359.88;;;6.26;64.64
29371;BME280;16357;52.188;7.838;2023-01-31T05:31:08;101362.47;;;6.27;64.74
29371;BME280;16357;52.188;7.838;2023-01-31T05:33:35;101357.00;;;6.29;64.48
29371;BME280;16357;52.188;7.838;2023-01-31T05:36:01;101361.38;;;6.30;64.59
29371;BME280;16357;52.188;7.838;2023-01-31T05:38:28;101358.59;;;6.31;64.76
29371;BME280;16357;52.188;7.838;2023-01-31T05:40:54;101361.16;;;6.33;64.60
29371;BME280;16357;52.188;7.838;2023-01-31T05:43:20;101355.69;;;6.34;64.55
29371;BME280;16357;52.188;7.838;2023-01-31T05:45:47;101356.56;;;6.35;64.49
29371;BME280;16357;52.188;7.838;2023-01-31T05:48:14;101355.59;;;6.36;64.59
29371;BME280;16357;52.188;7.838;2023-01-31T05:50:41;101352.81;;;6.37;64.45
29371;BME280;16357;52.188;7.838;2023-01-31T05:53:07;101348.34;;;6.38;64.41
29371;BME280;16357;52.188;7.838;2023-01-31T05:55:34;101334.88;;;6.40;64.77
29371;BME280;16357;52.188;7.838;2023-01-31T05:58:00;101341.94;;;6.41;64.80
29371;BME280;16357;52.188;7.838;2023-01-31T06:00:27;101335.63;;;6.42;64.65
29371;BME280;16357;52.188;7.838;2023-01-31T06:02:57;101333.69;;;6.44;64.44
29371;BME280;16357;52.188;7.838;2023-01-31T06:05:25;101335.50;;;6.43;64.24
29371;BME280;16357;52.188;7.838;2023-01-31T06:07:52;101330.19;;;6.43;64.69
29371;BME280;16357;52.188;7.838;2023-01-31T06:10:18;101331.88;;;6.44;64.36
29371;BME280;16357;52.188;7.838;2023-01-31T06:12:47;101332.72;;;6.45;64.36
29371;BME280;16357;52.188;7.838;2023-01-31T06:15:13;101329.22;;;6.44;64.45
29371;BME280;16357;52.188;7.838;2023-01-31T06:17:40;101338.94;;;6.45;64.41
29371;BME280;16357;52.188;7.838;2023-01-31T06:20:07;101333.59;;;6.45;64.38
29371;BME280;16357;52.188;7.838;2023-01-31T06:22:33;101332.63;;;6.46;64.37
29371;BME280;16357;52.188;7.838;2023-01-31T06:25:00;101328.97;;;6.47;64.75
29371;BME280;16357;52.188;7.838;2023-01-31T06:27:26;101335.19;;;6.48;64.57
29371;BME280;16357;52.188;7.838;2023-01-31T06:29:54;101328.97;;;6.47;64.78
29371;BME280;16357;52.188;7.838;2023-01-31T06:32:20;101328.88;;;6.49;64.98
29371;BME280;16357;52.188;7.838;2023-01-31T06:34:47;101331.44;;;6.50;64.85
29371;BME280;16357;52.188;7.838;2023-01-31T06:37:13;101333.22;;;6.50;65.10
29371;BME280;16357;52.188;7.838;2023-01-31T06:39:39;101338.47;;;6.51;65.21
29371;BME280;16357;52.188;7.838;2023-01-31T06:42:06;101326.94;;;6.51;65.01
29371;BME280;16357;52.188;7.838;2023-01-31T06:44:32;101332.16;;;6.52;65.31
29371;BME280;16357;52.188;7.838;2023-01-31T06:46:59;101340.97;;;6.53;65.25
29371;BME280;16357;52.188;7.838;2023-01-31T06:49:26;101332.03;;;6.54;65.26
29371;BME280;16357;52.188;7.838;2023-01-31T06:51:52;101338.22;;;6.54;64.88
29371;BME280;16357;52.188;7.838;2023-01-31T06:54:19;101329.25;;;6.55;65.19
29371;BME280;16357;52.188;7.838;2023-01-31T06:56:46;101316.78;;;6.56;65.29
29371;BME280;16357;52.188;7.838;2023-01-31T06:59:12;101328.16;;;6.58;64.84
29371;BME280;16357;52.188;7.838;2023-01-31T07:01:39;101322.81;;;6.58;65.23
29371;BME280;16357;52.188;7.838;2023-01-31T07:04:05;101329.88;;;6.59;65.40
29371;BME280;16357;52.188;7.838;2023-01-31T07:06:31;101327.09;;;6.60;65.46
29371;BME280;16357;52.188;7.838;2023-01-31T07:08:58;101326.13;;;6.62;64.96
29371;BME280;16357;52.188;7.838;2023-01-31T07:11:24;101320.66;;;6.63;65.09
29371;BME280;16357;52.188;7.838;2023-01-31T07:13:51;101320.56;;;6.65;65.34
29371;BME280;16357;52.188;7.838;2023-01-31T07:16:18;101308.91;;;6.66;65.11
29371;BME280;16357;52.188;7.838;2023-01-31T07:18:45;101312.31;;;6.68;65.25
29371;BME280;16357;52.188;7.838;2023-01-31T07:21:11;101303.34;;;6.69;65.29
29371;BME280;16357;52.188;7.838;2023-01-31T07:23:38;101292.69;;;6.69;65.09
29371;BME280;16357;52.188;7.838;2023-01-31T07:26:05;101289.81;;;6.72;64.95
29371;BME280;16357;52.188;7.838;2023-01-31T07:28:31;101295.84;;;6.74;64.94
29371;BME280;16357;52.188;7.838;2023-01-31T07:31:06;101282.31;;;6.77;65.34
29371;BME280;16357;52.188;7.838;2023-01-31T07:33:33;101288.47;;;6.77;65.27
29371;BME280;16357;52.188;7.838;2023-01-31T07:36:01;101292.84;;;6.78;65.43
29371;BME280;16357;52.188;7.838;2023-01-31T07:38:28;101290.81;;;6.82;65.45
29371;BME280;16357;52.188;7.838;2023-01-31T07:41:00;101284.25;;;6.86;65.40
29371;BME280;16357;52.188;7.838;2023-01-31T07:43:29;101286.66;;;6.89;65.26
29371;BME280;16357;52.188;7.838;2023-01-31T07:45:56;101283.06;;;6.90;65.19
29371;BME280;16357;52.188;7.838;2023-01-31T07:48:23;101274.81;;;6.93;65.31
29371;BME280;16357;52.188;7.838;2023-01-31T07:50:57;101273.72;;;6.96;65.12
29371;BME280;16357;52.188;7.838;2023-01-31T07:53:23;101267.31;;;6.98;65.15
29371;BME280;16357;52.188;7.838;2023-01-31T07:55:51;101267.06;;;7.01;65.11
29371;BME280;16357;52.188;7.838;2023-01-31T07:58:18;101269.47;;;7.04;65.03
29371;BME280;16357;52.188;7.838;2023-01-31T08:00:44;101265.59;;;7.09;65.06
29371;BME280;16357;52.188;7.838;2023-01-31T08:03:30;101261.72;;;7.13;65.34
29371;BME280;16357;52.188;7.838;2023-01-31T08:06:06;101260.63;;;7.15;64.89
29371;BME280;16357;52.188;7.838;2023-01-31T08:08:35;101260.50;;;7.17;64.73
29371;BME280;16357;52.188;7.838;2023-01-31T08:11:01;101254.09;;;7.19;65.29
29371;BME280;16357;52.188;7.838;2023-01-31T08:13:31;101254.94;;;7.20;64.82
29371;BME280;16357;52.188;7.838;2023-01-31T08:15:58;101248.50;;;7.22;65.04
29371;BME280;16357;52.188;7.838;2023-01-31T08:18:24;101246.56;;;7.24;65.03
29371;BME280;16357;52.188;7.838;2023-01-31T08:20:51;101240.34;;;7.24;65.14
29371;BME280;16357;52.188;7.838;2023-01-31T08:23:17;101224.34;;;7.24;65.05
29371;BME280;16357;52.188;7.838;2023-01-31T08:25:44;101235.88;;;7.24;65.36
29371;BME280;16357;52.188;7.838;2023-01-31T08:28:10;101221.56;;;7.25;65.63
29371;BME280;16357;52.188;7.838;2023-01-31T08:30:41;101212.56;;;7.26;65.19
29371;BME280;16357;52.188;7.838;2023-01-31T08:33:09;101212.47;;;7.28;65.28
29371;BME280;16357;52.188;7.838;2023-01-31T08:35:36;101215.13;;;7.28;65.65
29371;BME280;16357;52.188;7.838;2023-01-31T08:38:03;101207.84;;;7.30;65.27
29371;BME280;16357;52.188;7.838;2023-01-31T08:40:41;101199.72;;;7.32;65.36
29371;BME280;16357;52.188;7.838;2023-01-31T08:43:08;101196.94;;;7.33;65.25
29371;BME280;16357;52.188;7.838;2023-01-31T08:45:35;101193.28;;;7.34;65.48
29371;BME280;16357;52.188;7.838;2023-01-31T08:48:02;101190.50;;;7.36;65.51
29371;BME280;16357;52.188;7.838;2023-01-31T08:50:30;101195.72;;;7.37;65.29
29371;BME280;16357;52.188;7.838;2023-01-31T08:53:00;101191.09;;;7.39;65.24
29371;BME280;16357;52.188;7.838;2023-01-31T08:55:29;101187.47;;;7.40;65.38
29371;BME280;16357;52.188;7.838;2023-01-31T08:57:56;101172.16;;;7.42;65.36
29371;BME280;16357;52.188;7.838;2023-01-31T09:00:26;101181.03;;;7.43;65.00
29371;BME280;16357;52.188;7.838;2023-01-31T09:02:57;101170.19;;;7.44;65.12
29371;BME280;16357;52.188;7.838;2023-01-31T09:05:25;101173.72;;;7.45;64.77
29371;BME280;16357;52.188;7.838;2023-01-31T09:07:52;101185.25;;;7.45;64.51
29371;BME280;16357;52.188;7.838;2023-01-31T09:10:20;101187.78;;;7.47;64.88
29371;BME280;16357;52.188;7.838;2023-01-31T09:12:46;101179.66;;;7.48;64.59
29371;BME280;16357;52.188;7.838;2023-01-31T09:15:13;101190.34;;;7.48;64.46
29371;BME280;16357;52.188;7.838;2023-01-31T09:17:40;101183.19;;;7.49;64.58
29371;BME280;16357;52.188;7.838;2023-01-31T09:20:07;101168.00;;;7.50;64.63
29371;BME280;16357;52.188;7.838;2023-01-31T09:22:35;101171.41;;;7.52;64.57
29371;BME280;16357;52.188;7.838;2023-01-31T09:25:02;101160.63;;;7.53;64.87
29371;BME280;16357;52.188;7.838;2023-01-31T09:27:29;101159.63;;;7.54;64.89
29371;BME280;16357;52.188;7.838;2023-01-31T09:29:56;101165.69;;;7.56;64.56
29371;BME280;16357;52.188;7.838;2023-01-31T09:32:22;101163.88;;;7.57;64.74
29371;BME280;16357;52.188;7.838;2023-01-31T09:34:49;101153.91;;;7.59;64.25
29371;BME280;16357;52.188;7.838;2023-01-31T09:37:15;101159.94;;;7.61;64.30
29371;BME280;16357;52.188;7.838;2023-01-31T09:39:42;101158.00;;;7.63;64.21
29371;BME280;16357;52.188;7.838;2023-01-31T09:42:19;101154.25;;;7.65;64.40
29371;BME280;16357;52.188;7.838;2023-01-31T09:47:37;101173.41;;;7.70;64.36
29371;BME280;16357;52.188;7.838;2023-01-31T09:50:45;101131.50;;;7.71;64.01
29371;BME280;16357;52.188;7.838;2023-01-31T09:53:12;101150.94;;;7.73;63.92
29371;BME280;16357;52.188;7.838;2023-01-31T09:55:47;101152.66;;;7.74;63.91
29371;BME280;16357;52.188;7.838;2023-01-31T09:58:28;101146.31;;;7.75;63.64
29371;BME280;16357;52.188;7.838;2023-01-31T10:09:39;101161.09;;;7.79;63.72
29371;BME280;16357;52.188;7.838;2023-01-31T10:12:10;101136.81;;;7.82;63.60
29371;BME280;16357;52.188;7.838;2023-01-31T10:14:42;101141.19;;;7.83;63.29
29371;BME280;16357;52.188;7.838;2023-01-31T10:17:21;101141.91;;;7.85;63.61
29371;BME280;16357;52.188;7.838;2023-01-31T10:22:37;101140.91;;;7.86;63.69
29371;BME280;16357;52.188;7.838;2023-01-31T10:25:37;101142.47;;;7.89;63.89
29371;BME280;16357;52.188;7.838;2023-01-31T10:30:43;101136.03;;;7.91;63.84
29371;BME280;16357;52.188;7.838;2023-01-31T10:33:23;101125.25;;;7.93;63.66
29371;BME280;16357;52.188;7.838;2023-01-31T10:35:55;101126.91;;;7.94;63.79
29371;BME280;16357;52.188;7.838;2023-01-31T10:38:27;101111.63;;;7.96;63.76
29371;BME280;16357;52.188;7.838;2023-01-31T10:41:05;101106.13;;;7.98;63.94
29371;BME280;16357;52.188;7.838;2023-01-31T10:43:43;101098.84;;;8.00;64.05
29371;BME280;16357;52.188;7.838;2023-01-31T10:46:11;101107.56;;;8.02;64.03
29371;BME280;16357;52.188;7.838;2023-01-31T10:48:41;101098.56;;;8.03;64.08
29371;BME280;16357;52.188;7.838;2023-01-31T10:51:18;101101.97;;;8.05;63.96
29371;BME280;16357;52.188;7.838;2023-01-31T10:53:54;101092.97;;;8.06;63.79
29371;BME280;16357;52.188;7.838;2023-01-31T10:56:32;101092.72;;;8.09;63.88
29371;BME280;16357;52.188;7.838;2023-01-31T10:59:03;101088.31;;;8.08;64.10
29371;BME280;16357;52.188;7.838;2023-01-31T11:01:30;101087.38;;;8.09;64.04
29371;BME280;16357;52.188;7.838;2023-01-31T11:03:57;101066.84;;;8.09;64.17
29371;BME280;16357;52.188;7.838;2023-01-31T11:06:25;101075.56;;;8.11;64.31
29371;BME280;16357;52.188;7.838;2023-01-31T11:08:55;101054.03;;;8.13;63.90
29371;BME280;16357;52.188;7.838;2023-01-31T11:11:24;101055.59;;;8.16;64.40
29371;BME280;16357;52.188;7.838;2023-01-31T11:16:27;101062.97;;;8.23;64.35
29371;BME280;16357;52.188;7.838;2023-01-31T11:18:58;101054.81;;;8.25;63.90
29371;BME280;16357;52.188;7.838;2023-01-31T11:21:29;101052.88;;;8.27;63.98
29371;BME280;16357;52.188;7.838;2023-01-31T11:24:01;101060.72;;;8.28;64.12
29371;BME280;16357;52.188;7.838;2023-01-31T11:26:33;101058.78;;;8.30;64.07
29371;BME280;16357;52.188;7.838;2023-01-31T11:29:01;101055.13;;;8.31;64.20
29371;BME280;16357;52.188;7.838;2023-01-31T11:31:34;101054.84;;;8.34;64.11
29371;BME280;16357;52.188;7.838;2023-01-31T11:34:18;101049.25;;;8.38;64.10
29371;BME280;16357;52.188;7.838;2023-01-31T11:36:45;101050.94;;;8.39;63.99
29371;BME280;16357;52.188;7.838;2023-01-31T11:39:31;101051.53;;;8.42;63.97
29371;BME280;16357;52.188;7.838;2023-01-31T11:42:11;101056.63;;;8.45;63.99
29371;BME280;16357;52.188;7.838;2023-01-31T11:47:24;101029.91;;;8.45;63.92
29371;BME280;16357;52.188;7.838;2023-01-31T11:49:51;101021.72;;;8.47;63.75
29371;BME280;16357;52.188;7.838;2023-01-31T11:52:20;101027.06;;;8.47;63.90
29371;BME280;16357;52.188;7.838;2023-01-31T11:54:53;101013.00;;;8.45;63.79
29371;BME280;16357;52.188;7.838;2023-01-31T11:57:25;101011.03;;;8.47;63.74
29371;BME280;16357;52.188;7.838;2023-01-31T11:59:56;100996.69;;;8.48;63.85
29371;BME280;16357;52.188;7.838;2023-01-31T12:02:32;100999.22;;;8.49;64.00
29371;BME280;16357;52.188;7.838;2023-01-31T12:05:07;100989.38;;;8.50;63.88
29371;BME280;16357;52.188;7.838;2023-01-31T12:07:46;100975.03;;;8.51;63.85
29371;BME280;16357;52.188;7.838;2023-01-31T12:10:29;100968.69;;;8.52;63.84
29371;BME280;16357;52.188;7.838;2023-01-31T12:12:58;100975.88;;;8.51;64.12
29371;BME280;16357;52.188;7.838;2023-01-31T12:18:21;100982.19;;;8.50;64.05
29371;BME280;16357;52.188;7.838;2023-01-31T12:26:36;100986.13;;;8.46;64.13
29371;BME280;16357;52.188;7.838;2023-01-31T12:38:07;100973.31;;;8.40;64.79
29371;BME280;16357;52.188;7.838;2023-01-31T12:40:44;100970.75;;;8.39;64.85
29371;BME280;16357;52.188;7.838;2023-01-31T12:46:12;100990.56;;;8.36;65.48
29371;BME280;16357;52.188;7.838;2023-01-31T12:51:13;100991.81;;;8.32;65.35
29371;BME280;16357;52.188;7.838;2023-01-31T12:56:48;100996.31;;;8.31;65.75
29371;BME280;16357;52.188;7.838;2023-01-31T13:00:10;100987.44;;;8.31;66.00
29371;BME280;16357;52.188;7.838;2023-01-31T13:05:32;100990.97;;;8.31;66.45
29371;BME280;16357;52.188;7.838;2023-01-31T13:08:13;100997.16;;;8.32;66.58
29371;BME280;16357;52.188;7.838;2023-01-31T13:10:46;100985.63;;;8.31;66.58
29371;BME280;16357;52.188;7.838;2023-01-31T13:13:26;100989.13;;;8.32;67.04
29371;BME280;16357;52.188;7.838;2023-01-31T13:16:10;100976.63;;;8.32;66.78
29371;BME280;16357;52.188;7.838;2023-01-31T13:18:38;100991.81;;;8.32;67.12
29371;BME280;16357;52.188;7.838;2023-01-31T13:21:19;100974.94;;;8.31;67.14
29371;BME280;16357;52.188;7.838;2023-01-31T13:23:58;100967.75;;;8.32;67.31
29371;BME280;16357;52.188;7.838;2023-01-31T13:26:32;100949.19;;;8.30;67.54
29371;BME280;16357;52.188;7.838;2023-01-31T13:29:10;100953.53;;;8.31;67.19
29371;BME280;16357;52.188;7.838;2023-01-31T13:32:01;100943.69;;;8.32;67.73
29371;BME280;16357;52.188;7.838;2023-01-31T13:34:38;100941.88;;;8.32;68.04
29371;BME280;16357;52.188;7.838;2023-01-31T13:37:17;100946.25;;;8.33;67.49
29371;BME280;16357;52.188;7.838;2023-01-31T13:39:51;100941.47;;;8.37;67.66
29371;BME280;16357;52.188;7.838;2023-01-31T13:42:19;100942.31;;;8.38;68.14
29371;BME280;16357;52.188;7.838;2023-01-31T13:44:47;100934.19;;;8.39;67.85
29371;BME280;16357;52.188;7.838;2023-01-31T13:52:31;100940.69;;;8.46;68.12
29371;BME280;16357;52.188;7.838;2023-01-31T13:55:04;100915.50;;;8.49;68.29
29371;BME280;16357;52.188;7.838;2023-01-31T13:57:42;100940.28;;;8.51;68.28
29371;BME280;16357;52.188;7.838;2023-01-31T14:00:38;100949.69;;;8.55;68.05
29371;BME280;16357;52.188;7.838;2023-01-31T14:03:15;100946.72;;;8.58;68.47
29371;BME280;16357;52.188;7.838;2023-01-31T14:08:33;100927.47;;;8.64;68.50
29371;BME280;16357;52.188;7.838;2023-01-31T14:11:06;100925.53;;;8.66;68.22
29371;BME280;16357;52.188;7.838;2023-01-31T14:14:17;100928.75;;;8.70;68.19
29371;BME280;16357;52.188;7.838;2023-01-31T14:16:50;100924.94;;;8.72;68.22
29371;BME280;16357;52.188;7.838;2023-01-31T14:22:14;100939.47;;;8.79;68.24
29371;BME280;16357;52.188;7.838;2023-01-31T14:30:56;100944.78;;;8.89;68.60
29371;BME280;16357;52.188;7.838;2023-01-31T14:38:41;100954.50;;;9.00;68.10
29371;BME280;16357;52.188;7.838;2023-01-31T14:41:35;100943.38;;;9.05;68.36
29371;BME280;16357;52.188;7.838;2023-01-31T14:56:07;100959.59;;;9.22;67.96
29371;BME280;16357;52.188;7.838;2023-01-31T14:58:41;100946.91;;;9.25;67.91
29371;BME280;16357;52.188;7.838;2023-01-31T15:01:16;100968.03;;;9.28;68.13
29371;BME280;16357;52.188;7.838;2023-01-31T15:03:52;100957.88;;;9.31;67.93
29371;BME280;16357;52.188;7.838;2023-01-31T15:06:30;100947.88;;;9.33;67.81
29371;BME280;16357;52.188;7.838;2023-01-31T15:11:42;100966.88;;;9.40;67.81
29371;BME280;16357;52.188;7.838;2023-01-31T15:19:46;100953.63;;;9.48;67.68
29371;BME280;16357;52.188;7.838;2023-01-31T15:22:16;100958.69;;;9.51;67.82
29371;BME280;16357;52.188;7.838;2023-01-31T15:24:46;100954.91;;;9.54;67.81
29371;BME280;16357;52.188;7.838;2023-01-31T15:27:27;100951.09;;;9.56;67.51
29371;BME280;16357;52.188;7.838;2023-01-31T15:30:02;100937.69;;;9.56;67.54
29371;BME280;16357;52.188;7.838;2023-01-31T15:32:51;100943.72;;;9.58;67.62